Clarksville, Indiana
Current Conditions -  °F | °C
As of 3:42 PM on Thursday 27 Nov 2014 (Local Time) from KLOU Reporting Station
Overcast Overcast  
Wind Chill: 24°   Ceiling: 3000
Heat Index: 33°   Visibility: 10mi
Dew Point: 22°   Wind: 12mph
Humidity: 64%   Direction: 270°W
Pressure: 30.37"   Gusts: NA
Location:  38.29°N, 85.76°W
Report Text: KLOU 272042Z 27010KT 10SM OVC030 01/M06 A3037 RMK AO2 T00061056
Loading
Personal Weather Stations






























Interactive Weather Map New forecast layout! Learn more

10-Day Weather Forecast

Advertisements
Track Severe Weather on mobile